To NAV CANADA Home Page Login to a new session Search on AWWS site Feedback and Comments Disclaimer Vers la page française équivalente Tips FAQ What's new on the site To the Forecasts and Observations / NOTAM section To "File a Flight Plan" website Publications and other links Update of the User's profile FIC Telephone Numbers My Weather Data Folder Route Weather Data Regional Weather Data Local Weather Data To the Forecasts and Observations / NOTAM section
Request Generated 05/03/2016 at 23:58:14 UTC . Weather information available at that time is displayed.

METAR/TAF

CAPE DORSET/NU    

METAR CYTE 032300Z AUTO 26003KT 9SM CLR M10/M14 A2975 RMK SLP081=
METAR CYTE 032200Z AUTO 35004KT 9SM CLR M10/M15 A2974 RMK SLP079=
METAR CYTE 032100Z AUTO 01006KT 9SM CLR M09/M14 A2974 RMK SLP077=

TAF CYTE 031838Z 0319/0407 36010KT P6SM SCT020 SCT060
BECMG 0322/0324 31006KT
FM040000 31006KT P6SM SCT012 TEMPO 0400/0407 4SM BR OVC010
RMK NXT FCST BY 040100Z=
Your time UTC time
Weather data provided by Environment Canada and NAV CANADA